WetterOnline ( https://www.wetteronline.at )

Wetter aktuell Leipzig

Aktuelles Wetter: Leipzig-Holzhausen (138m)

6-stündlich | Neueste Meldungen
Ortszeit Temperatur Wetter
Mi, 20.01. 7:00 5.4° C wolkig
Mi, 20.01. 1:00 5.1° C leicht bewölkt
Di, 19.01. 19:00 3.2° C leichter Regen
Di, 19.01. 13:00 2.7° C leichter Schneeregen
Di, 19.01. 7:00 3.1° C -
Di, 19.01. 1:00 2.7° C bedeckt
Mo, 18.01. 19:00 2.4° C leichter Regen
Mo, 18.01. 13:00 3.2° C bedeckt
Ortszeit Temperatur Wetter
Mi, 20.01. 10:00 6.1° C bedeckt
Mi, 20.01. 9:50 6.1° C bedeckt
Mi, 20.01. 9:40 6.1° C bewölkt
Mi, 20.01. 9:30 6.2° C wolkig
Mi, 20.01. 9:20 6.2° C wolkig
Mi, 20.01. 9:10 6.0° C bewölkt
Mi, 20.01. 9:00 6.0° C bedeckt
Mi, 20.01. 8:30 5.9° C bewölkt
Mi, 20.01. 8:00 5.7° C bedeckt
Mi, 20.01. 7:30 5.5° C bewölkt
Mi, 20.01. 7:00 5.4° C wolkig
Ortszeit Relative Feuchte Sichtweite
Mi, 20.01. 7:00 67% >70 km
Mi, 20.01. 1:00 83% 60 km
Di, 19.01. 19:00 92% 35 km
Di, 19.01. 13:00 81% 24 km
Di, 19.01. 7:00 82% 55 km
Di, 19.01. 1:00 85% 40 km
Mo, 18.01. 19:00 91% 17 km
Mo, 18.01. 13:00 81% 35 km
Ortszeit Relative Feuchte Sichtweite
Mi, 20.01. 10:00 63% 60 km
Mi, 20.01. 9:50 63% -
Mi, 20.01. 9:40 63% -
Mi, 20.01. 9:30 62% >70 km
Mi, 20.01. 9:20 62% -
Mi, 20.01. 9:10 63% -
Mi, 20.01. 9:00 63% 60 km
Mi, 20.01. 8:30 64% >70 km
Mi, 20.01. 8:00 65% >70 km
Mi, 20.01. 7:30 66% >70 km
Mi, 20.01. 7:00 67% >70 km
Ortszeit Niederschlagsmenge Niederschlagsart
Mi, 20.01. 7:00 0.1 l/m2 in 12 Std. -
Mi, 20.01. 1:00 0.1 l/m2 in 6 Std. Regen
Di, 19.01. 19:00 4 l/m2 in 12 Std. Schnee, Regen
Di, 19.01. 13:00 0.5 l/m2 in 6 Std. Schnee, Regen
Di, 19.01. 7:00 1 l/m2 in 12 Std. -
Di, 19.01. 1:00 1 l/m2 in 6 Std. Regen
Mo, 18.01. 19:00 1 l/m2 in 12 Std. Regen
Mo, 18.01. 13:00 0.4 l/m2 in 6 Std. Schnee, Regen
Ortszeit Niederschlagsmenge Niederschlagsart
Mi, 20.01. 10:00 0.0 l/m2 in 1 Std. -
Mi, 20.01. 9:50 keine Meldung -
Mi, 20.01. 9:40 keine Meldung -
Mi, 20.01. 9:30 0.0 l/m2 in 1 Std. -
Mi, 20.01. 9:20 keine Meldung -
Mi, 20.01. 9:10 keine Meldung -
Mi, 20.01. 9:00 0.0 l/m2 in 1 Std. -
Mi, 20.01. 8:30 0.0 l/m2 in 1 Std. -
Mi, 20.01. 8:00 0.0 l/m2 in 1 Std. -
Mi, 20.01. 7:30 0.0 l/m2 in 1 Std. -
Mi, 20.01. 7:00 0.0 l/m2 in 1 Std. -
Ortszeit Stärke Spitze Richtung
km/h Bft. km/h Grad Sektor
Mi, 20.01. 7:00 17 3 37 200° S
Mi, 20.01. 1:00 13 3 37 200° S
Di, 19.01. 19:00 9 2 43 220° SW
Di, 19.01. 13:00 18 3 40 210° SW
Di, 19.01. 7:00 11 2 29 210° SW
Di, 19.01. 1:00 11 2 32 240° SW
Mo, 18.01. 19:00 13 3 30 230° SW
Mo, 18.01. 13:00 13 3 26 250° W
Ortszeit Stärke Spitze Richtung
km/h Bft. km/h Grad Sektor
Mi, 20.01. 10:00 13 3 33 190° S
Mi, 20.01. 9:50 13 3 - 190° S
Mi, 20.01. 9:40 14 3 - 190° S
Mi, 20.01. 9:30 14 3 32 210° SW
Mi, 20.01. 9:20 14 3 - 210° SW
Mi, 20.01. 9:10 14 3 - 210° SW
Mi, 20.01. 9:00 14 3 36 210° SW
Mi, 20.01. 8:30 18 3 36 220° SW
Mi, 20.01. 8:00 17 3 31 210° SW
Mi, 20.01. 7:30 14 3 32 210° SW
Mi, 20.01. 7:00 17 3 37 200° S
Ortszeit Untergrenze Bedeckung Gattung
total tief tief mittel hoch
Mi, 20.01. 7:00 2100 m 8/8 1/8 - - -
Mi, 20.01. 1:00 570 m 4/8 4/8 - - -
Di, 19.01. 19:00 570 m 7/8 7/8 - - -
Di, 19.01. 13:00 1230 m 7/8 7/8 - - -
Di, 19.01. 7:00 - - - - - -
Di, 19.01. 1:00 750 m 8/8 8/8 - - -
Mo, 18.01. 19:00 330 m 6/8 6/8 - - -
Mo, 18.01. 13:00 1470 m 8/8 8/8 - - -
Ortszeit Bedeckungsgrad in Achtel und Wolkenuntergrenze
Mi, 20.01. 10:00 4(3600m) 8(4500m) 8(8100m)
Mi, 20.01. 9:50 4(3600m) 8(4500m) 8(8100m)
Mi, 20.01. 9:40 6(3600m) 7(4200m) 7(4800m)
Mi, 20.01. 9:30 2(2700m) 8(3900m) 8(4800m)
Mi, 20.01. 9:20 2(2700m) 8(3900m) 8(4800m)
Mi, 20.01. 9:10 5(2700m) 8(3900m) 8(4500m)
Mi, 20.01. 9:00 8(2700m) 8(3600m) 8(7200m)
Mi, 20.01. 8:30 6(2700m) 8(3300m)
Mi, 20.01. 8:00 8(3300m) 8(3900m) 8(4500m)
Mi, 20.01. 7:30 4(2700m) 8(3300m) 8(3900m)
Mi, 20.01. 7:00 1(2100m) 8(3000m)
Ortszeit Luftdruck NN (hPa) Tendenz (hPa in 3 Std.)
Mi, 20.01. 7:00 1006 - 1,4
Mi, 20.01. 1:00 1008 + 0,1
Di, 19.01. 19:00 1007 + 0,3
Di, 19.01. 13:00 1008 - 4,3
Di, 19.01. 7:00 1015 - 1,6
Di, 19.01. 1:00 1018 - 0,8
Mo, 18.01. 19:00 1020 - 0,4
Mo, 18.01. 13:00 1021 - 0,2
Ortszeit Luftdruck NN (hPa) Tendenz (hPa in 3 Std.)
Mi, 20.01. 10:00 1007 + 0,8
Mi, 20.01. 9:50 1007 keine Meldung
Mi, 20.01. 9:40 1006 keine Meldung
Mi, 20.01. 9:30 1006 + 0,7
Mi, 20.01. 9:20 1006 keine Meldung
Mi, 20.01. 9:10 1006 keine Meldung
Mi, 20.01. 9:00 1006 0,0
Mi, 20.01. 8:30 1006 - 0,7
Mi, 20.01. 8:00 1006 - 0,8
Mi, 20.01. 7:30 1006 - 1,1
Mi, 20.01. 7:00 1006 - 1,4
Ortszeit Schneehöhe (cm)
Mi, 20.01. 7:00 0
Mi, 20.01. 1:00 0
Di, 19.01. 19:00 0
Di, 19.01. 13:00 0
Di, 19.01. 7:00 0
Di, 19.01. 1:00 0
Mo, 18.01. 19:00 0
Mo, 18.01. 13:00 3
Ortszeit Schneehöhe (cm)
Mi, 20.01. 10:00 0
Mi, 20.01. 9:50 0
Mi, 20.01. 9:40 0
Mi, 20.01. 9:30 0
Mi, 20.01. 9:20 0
Mi, 20.01. 9:10 0
Mi, 20.01. 9:00 0
Mi, 20.01. 8:30 0
Mi, 20.01. 8:00 0
Mi, 20.01. 7:30 0
Mi, 20.01. 7:00 0
Link zu dieser Seite / Seite empfehlen

Das Wetter in ...